KDEC/DEC METAR and TAF weather

Enter ICAO airport designator
Station Type Date Time Source
KDEC METAR 2022/06/30 23:54 UTC NOAA

KDEC 302354Z 20009KT 10SM CLR 31/15 A2999 RMK AO2 SLP149 T03060150 10322 20306 58007


Station Type Date Time Source
KDEC Decoded METAR 2022/06/30 23:54 UTC NOAA

DECATUR AIRPORT, IL, United States (KDEC) 39-50N 88-52W 207M
Jun 30, 2022 - 07:54 PM EDT / 2022.06.30 2354 UTC
Wind: from the SSW (200 degrees) at 10 MPH (9 KT):0
Visibility: 10 mile(s):0
Sky conditions: clear
Temperature: 87.1 F (30.6 C)
Dew Point: 59.0 F (15.0 C)
Relative Humidity: 38%
Pressure (altimeter): 29.99 in. Hg (1015 hPa)
Pressure tendency: 0.02 inches (0.7 hPa) lower than three hours ago
ob: KDEC 302354Z 20009KT 10SM CLR 31/15 A2999 RMK AO2 SLP149 T03060150 10322 20306 58007
cycle: 0

Station Type Date Time Source
KDEC TAF 2022/06/30 18:24 UTC NOAA

TAF KDEC 301723Z 3018/0118 22011G18KT P6SM FEW250
FM010000 19006KT P6SM FEW250
FM011500 24012KT P6SM SCT040 BKN250

Example: see airport list